Kezdőlap
METAR-TAF:

METAR-TAF

Repülőterek :

Steamboat Springs, Colorado, Amerikai Egyesült Államok

földrajzi szélesség: 40-30-58N, földrajzi hosszúság: 106-51-59W, magasság: 2098 m

Jelenlegi meteorológiai megfigyelések

A jelentés 21 perccel ezelõtt készült, 23:55 UTC
Dél-délnyugati szél 4 kt
Hőmérséklet 9°C
Páratartalom 34%
Légköri nyomás 1009 hPa
Látótávolság: 16.1 km
Szórványos felhőzet 8000 lábon
Szakadozott felhőzet 10000 lábon

METAR: KSBS 042355Z AUTO 20004KT 10SM SCT080 BKN100 09/M06 A2981 RMK AO1 T00851065 10098 20051

Idő: 18:16 (00:16 UTC)


TAF: hiányzik

Meteorológiai megfigyelések és előrejelzések több, mint 4000 repülőtéren (METAR és TAF jelentéseket).

A térképen piros és sárga pontok jelzik az elérhető meteorológiai állomásokat.

Mozgassa az egeret a pont fölött, hogy megjelenjen az állomás neve.

Azután kattintson az időjárási megfigyelések és előrejelzések megtekintéséhez.

A térkép megváltoztatása: kattintson a fekete keresztel jelölt zöld gombra ráközelítéshez, a vonallal jelölt zöld gombra távolításhoz, vagy a zöld nyilakra a szomszédos térképek eléréséhez.


METAR-TAF: